sensor_id;sensor_type;location;lat;lon;timestamp;temperature;humidity
3846;DHT22;1938;50.812;7.738;2022-11-12T00:00:39;4.80;99.90
3846;DHT22;1938;50.812;7.738;2022-11-12T00:03:05;4.80;99.90
3846;DHT22;1938;50.812;7.738;2022-11-12T00:05:34;4.80;99.90
3846;DHT22;1938;50.812;7.738;2022-11-12T00:08:01;4.80;99.90
3846;DHT22;1938;50.812;7.738;2022-11-12T00:10:27;4.90;99.90
3846;DHT22;1938;50.812;7.738;2022-11-12T00:12:53;5.00;99.90
3846;DHT22;1938;50.812;7.738;2022-11-12T00:15:19;5.00;99.90
3846;DHT22;1938;50.812;7.738;2022-11-12T00:17:45;4.90;99.90
3846;DHT22;1938;50.812;7.738;2022-11-12T00:20:11;4.80;99.90
3846;DHT22;1938;50.812;7.738;2022-11-12T00:22:40;4.70;99.90
3846;DHT22;1938;50.812;7.738;2022-11-12T00:25:06;4.70;99.90
3846;DHT22;1938;50.812;7.738;2022-11-12T00:27:32;4.50;99.90
3846;DHT22;1938;50.812;7.738;2022-11-12T00:29:58;4.40;99.90
3846;DHT22;1938;50.812;7.738;2022-11-12T00:32:24;4.40;99.90
3846;DHT22;1938;50.812;7.738;2022-11-12T00:34:50;4.30;99.90
3846;DHT22;1938;50.812;7.738;2022-11-12T00:37:16;4.20;99.90
3846;DHT22;1938;50.812;7.738;2022-11-12T00:39:43;4.00;99.90
3846;DHT22;1938;50.812;7.738;2022-11-12T00:42:09;3.90;99.90
3846;DHT22;1938;50.812;7.738;2022-11-12T00:44:35;3.90;99.90
3846;DHT22;1938;50.812;7.738;2022-11-12T00:47:01;4.00;99.90
3846;DHT22;1938;50.812;7.738;2022-11-12T00:49:26;4.10;99.90
3846;DHT22;1938;50.812;7.738;2022-11-12T00:51:52;4.20;99.90
3846;DHT22;1938;50.812;7.738;2022-11-12T00:54:18;4.10;99.90
3846;DHT22;1938;50.812;7.738;2022-11-12T00:56:45;4.10;99.90
3846;DHT22;1938;50.812;7.738;2022-11-12T00:59:11;4.10;99.90
3846;DHT22;1938;50.812;7.738;2022-11-12T01:01:38;4.10;99.90
3846;DHT22;1938;50.812;7.738;2022-11-12T01:04:04;4.10;99.90
3846;DHT22;1938;50.812;7.738;2022-11-12T01:06:30;4.00;99.90
3846;DHT22;1938;50.812;7.738;2022-11-12T01:08:55;4.00;99.90
3846;DHT22;1938;50.812;7.738;2022-11-12T01:11:26;3.80;99.90
3846;DHT22;1938;50.812;7.738;2022-11-12T01:13:55;3.70;99.90
3846;DHT22;1938;50.812;7.738;2022-11-12T01:16:24;3.70;99.90
3846;DHT22;1938;50.812;7.738;2022-11-12T01:18:55;3.80;99.90
3846;DHT22;1938;50.812;7.738;2022-11-12T01:21:25;4.00;99.90
3846;DHT22;1938;50.812;7.738;2022-11-12T01:23:52;4.10;99.90
3846;DHT22;1938;50.812;7.738;2022-11-12T01:26:20;4.10;99.90
3846;DHT22;1938;50.812;7.738;2022-11-12T01:28:46;4.10;99.90
3846;DHT22;1938;50.812;7.738;2022-11-12T01:31:21;4.20;99.90
3846;DHT22;1938;50.812;7.738;2022-11-12T01:33:48;4.10;99.90
3846;DHT22;1938;50.812;7.738;2022-11-12T01:36:16;4.10;99.90
3846;DHT22;1938;50.812;7.738;2022-11-12T01:38:49;4.00;99.90
3846;DHT22;1938;50.812;7.738;2022-11-12T01:41:23;4.00;99.90
3846;DHT22;1938;50.812;7.738;2022-11-12T01:44:22;4.00;99.90
3846;DHT22;1938;50.812;7.738;2022-11-12T01:47:02;4.00;99.90
3846;DHT22;1938;50.812;7.738;2022-11-12T01:49:37;4.00;99.90
3846;DHT22;1938;50.812;7.738;2022-11-12T01:52:24;4.00;99.90
3846;DHT22;1938;50.812;7.738;2022-11-12T01:54:55;3.90;99.90
3846;DHT22;1938;50.812;7.738;2022-11-12T01:57:28;4.00;99.90
3846;DHT22;1938;50.812;7.738;2022-11-12T02:00:00;3.90;99.90
3846;DHT22;1938;50.812;7.738;2022-11-12T02:02:27;4.00;99.90
3846;DHT22;1938;50.812;7.738;2022-11-12T02:04:53;4.10;99.90
3846;DHT22;1938;50.812;7.738;2022-11-12T02:07:21;4.00;99.90
3846;DHT22;1938;50.812;7.738;2022-11-12T02:09:47;3.90;99.90
3846;DHT22;1938;50.812;7.738;2022-11-12T02:12:13;3.90;99.90
3846;DHT22;1938;50.812;7.738;2022-11-12T02:14:58;3.90;99.90
3846;DHT22;1938;50.812;7.738;2022-11-12T02:17:24;3.90;99.90
3846;DHT22;1938;50.812;7.738;2022-11-12T02:19:51;4.00;99.90
3846;DHT22;1938;50.812;7.738;2022-11-12T02:22:17;4.10;99.90
3846;DHT22;1938;50.812;7.738;2022-11-12T02:24:43;4.10;99.90
3846;DHT22;1938;50.812;7.738;2022-11-12T02:27:11;4.20;99.90
3846;DHT22;1938;50.812;7.738;2022-11-12T02:29:40;4.10;99.90
3846;DHT22;1938;50.812;7.738;2022-11-12T02:32:11;4.00;99.90
3846;DHT22;1938;50.812;7.738;2022-11-12T02:34:38;3.70;99.90
3846;DHT22;1938;50.812;7.738;2022-11-12T02:37:04;3.70;99.90
3846;DHT22;1938;50.812;7.738;2022-11-12T02:39:30;3.60;99.90
3846;DHT22;1938;50.812;7.738;2022-11-12T02:41:55;3.50;99.90
3846;DHT22;1938;50.812;7.738;2022-11-12T02:44:21;3.40;99.90
3846;DHT22;1938;50.812;7.738;2022-11-12T02:46:46;3.30;99.90
3846;DHT22;1938;50.812;7.738;2022-11-12T02:49:14;3.20;99.90
3846;DHT22;1938;50.812;7.738;2022-11-12T02:51:41;3.30;99.90
3846;DHT22;1938;50.812;7.738;2022-11-12T02:54:06;3.40;99.90
3846;DHT22;1938;50.812;7.738;2022-11-12T02:56:33;3.50;99.90
3846;DHT22;1938;50.812;7.738;2022-11-12T02:59:00;3.50;99.90
3846;DHT22;1938;50.812;7.738;2022-11-12T03:01:26;3.50;99.90
3846;DHT22;1938;50.812;7.738;2022-11-12T03:03:51;3.60;99.90
3846;DHT22;1938;50.812;7.738;2022-11-12T03:06:17;3.70;99.90
3846;DHT22;1938;50.812;7.738;2022-11-12T03:08:43;3.60;99.90
3846;DHT22;1938;50.812;7.738;2022-11-12T03:11:11;3.60;99.90
3846;DHT22;1938;50.812;7.738;2022-11-12T03:13:37;3.50;99.90
3846;DHT22;1938;50.812;7.738;2022-11-12T03:16:03;3.50;99.90
3846;DHT22;1938;50.812;7.738;2022-11-12T03:18:29;3.50;99.90
3846;DHT22;1938;50.812;7.738;2022-11-12T03:20:54;3.50;99.90
3846;DHT22;1938;50.812;7.738;2022-11-12T03:23:21;3.50;99.90
3846;DHT22;1938;50.812;7.738;2022-11-12T03:25:47;3.60;99.90
3846;DHT22;1938;50.812;7.738;2022-11-12T03:28:14;3.50;99.90
3846;DHT22;1938;50.812;7.738;2022-11-12T03:30:41;3.40;99.90
3846;DHT22;1938;50.812;7.738;2022-11-12T03:33:09;3.30;99.90
3846;DHT22;1938;50.812;7.738;2022-11-12T03:35:35;3.30;99.90
3846;DHT22;1938;50.812;7.738;2022-11-12T03:38:01;3.20;99.90
3846;DHT22;1938;50.812;7.738;2022-11-12T03:40:31;3.10;99.90
3846;DHT22;1938;50.812;7.738;2022-11-12T03:42:57;3.00;99.90
3846;DHT22;1938;50.812;7.738;2022-11-12T03:45:25;3.00;99.90
3846;DHT22;1938;50.812;7.738;2022-11-12T03:47:53;3.00;99.90
3846;DHT22;1938;50.812;7.738;2022-11-12T03:50:22;2.90;99.90
3846;DHT22;1938;50.812;7.738;2022-11-12T03:52:50;3.00;99.90
3846;DHT22;1938;50.812;7.738;2022-11-12T03:55:19;3.00;99.90
3846;DHT22;1938;50.812;7.738;2022-11-12T03:57:50;2.90;99.90
3846;DHT22;1938;50.812;7.738;2022-11-12T04:00:16;2.90;99.90
3846;DHT22;1938;50.812;7.738;2022-11-12T04:02:45;3.00;99.90
3846;DHT22;1938;50.812;7.738;2022-11-12T04:05:11;3.10;99.90
3846;DHT22;1938;50.812;7.738;2022-11-12T04:08:04;3.10;99.90
3846;DHT22;1938;50.812;7.738;2022-11-12T04:10:49;3.30;99.90
3846;DHT22;1938;50.812;7.738;2022-11-12T04:13:14;3.40;99.90
3846;DHT22;1938;50.812;7.738;2022-11-12T04:16:01;3.40;99.90
3846;DHT22;1938;50.812;7.738;2022-11-12T04:18:47;3.40;99.90
3846;DHT22;1938;50.812;7.738;2022-11-12T04:21:39;3.40;99.90
3846;DHT22;1938;50.812;7.738;2022-11-12T04:27:20;3.20;99.90
3846;DHT22;1938;50.812;7.738;2022-11-12T04:29:47;3.20;99.90
3846;DHT22;1938;50.812;7.738;2022-11-12T04:32:34;3.20;99.90
3846;DHT22;1938;50.812;7.738;2022-11-12T04:35:00;3.20;99.90
3846;DHT22;1938;50.812;7.738;2022-11-12T04:37:27;3.30;99.90
3846;DHT22;1938;50.812;7.738;2022-11-12T04:39:54;3.30;99.90
3846;DHT22;1938;50.812;7.738;2022-11-12T04:42:20;3.20;99.90
3846;DHT22;1938;50.812;7.738;2022-11-12T04:45:10;3.20;99.90
3846;DHT22;1938;50.812;7.738;2022-11-12T04:47:37;3.20;99.90
3846;DHT22;1938;50.812;7.738;2022-11-12T04:50:15;3.20;99.90
3846;DHT22;1938;50.812;7.738;2022-11-12T04:52:44;3.20;99.90
3846;DHT22;1938;50.812;7.738;2022-11-12T04:55:10;3.30;99.90
3846;DHT22;1938;50.812;7.738;2022-11-12T04:57:36;3.30;99.90
3846;DHT22;1938;50.812;7.738;2022-11-12T05:00:03;3.30;99.90
3846;DHT22;1938;50.812;7.738;2022-11-12T05:02:29;3.30;99.90
3846;DHT22;1938;50.812;7.738;2022-11-12T05:04:58;3.20;99.90
3846;DHT22;1938;50.812;7.738;2022-11-12T05:07:24;3.20;99.90
3846;DHT22;1938;50.812;7.738;2022-11-12T05:09:50;3.20;99.90
3846;DHT22;1938;50.812;7.738;2022-11-12T05:12:16;3.20;99.90
3846;DHT22;1938;50.812;7.738;2022-11-12T05:14:42;3.20;99.90
3846;DHT22;1938;50.812;7.738;2022-11-12T05:17:08;3.20;99.90
3846;DHT22;1938;50.812;7.738;2022-11-12T05:19:33;3.30;99.90
3846;DHT22;1938;50.812;7.738;2022-11-12T05:21:59;3.30;99.90
3846;DHT22;1938;50.812;7.738;2022-11-12T05:24:37;3.30;99.90
3846;DHT22;1938;50.812;7.738;2022-11-12T05:29:34;3.30;99.90
3846;DHT22;1938;50.812;7.738;2022-11-12T05:32:00;3.30;99.90
3846;DHT22;1938;50.812;7.738;2022-11-12T05:34:26;3.30;99.90
3846;DHT22;1938;50.812;7.738;2022-11-12T05:36:52;3.30;99.90
3846;DHT22;1938;50.812;7.738;2022-11-12T05:39:18;3.30;99.90
3846;DHT22;1938;50.812;7.738;2022-11-12T05:41:44;3.30;99.90
3846;DHT22;1938;50.812;7.738;2022-11-12T05:44:09;3.30;99.90
3846;DHT22;1938;50.812;7.738;2022-11-12T05:46:35;3.20;99.90
3846;DHT22;1938;50.812;7.738;2022-11-12T05:49:01;3.20;99.90
3846;DHT22;1938;50.812;7.738;2022-11-12T05:51:27;3.20;99.90
3846;DHT22;1938;50.812;7.738;2022-11-12T05:53:53;3.10;99.90
3846;DHT22;1938;50.812;7.738;2022-11-12T05:56:18;3.10;99.90
3846;DHT22;1938;50.812;7.738;2022-11-12T05:58:44;3.10;99.90
3846;DHT22;1938;50.812;7.738;2022-11-12T06:01:09;3.10;99.90
3846;DHT22;1938;50.812;7.738;2022-11-12T06:03:35;3.10;99.90
3846;DHT22;1938;50.812;7.738;2022-11-12T06:06:01;3.00;99.90
3846;DHT22;1938;50.812;7.738;2022-11-12T06:08:27;2.90;99.90
3846;DHT22;1938;50.812;7.738;2022-11-12T06:10:54;2.80;99.90
3846;DHT22;1938;50.812;7.738;2022-11-12T06:13:21;2.80;99.90
3846;DHT22;1938;50.812;7.738;2022-11-12T06:15:48;2.80;99.90
3846;DHT22;1938;50.812;7.738;2022-11-12T06:18:13;2.70;99.90
3846;DHT22;1938;50.812;7.738;2022-11-12T06:20:39;2.80;99.90
3846;DHT22;1938;50.812;7.738;2022-11-12T06:23:08;2.70;99.90
3846;DHT22;1938;50.812;7.738;2022-11-12T06:25:33;2.50;99.90
3846;DHT22;1938;50.812;7.738;2022-11-12T06:27:59;2.50;99.90
3846;DHT22;1938;50.812;7.738;2022-11-12T06:30:25;2.50;99.90
3846;DHT22;1938;50.812;7.738;2022-11-12T06:32:51;2.40;99.90
3846;DHT22;1938;50.812;7.738;2022-11-12T06:35:17;2.50;99.90
3846;DHT22;1938;50.812;7.738;2022-11-12T06:37:47;2.50;99.90
3846;DHT22;1938;50.812;7.738;2022-11-12T06:40:13;2.50;99.90
3846;DHT22;1938;50.812;7.738;2022-11-12T06:42:39;2.50;99.90
3846;DHT22;1938;50.812;7.738;2022-11-12T06:45:06;2.50;99.90
3846;DHT22;1938;50.812;7.738;2022-11-12T06:47:31;2.60;99.90
3846;DHT22;1938;50.812;7.738;2022-11-12T06:49:57;2.70;99.90
3846;DHT22;1938;50.812;7.738;2022-11-12T06:52:23;2.70;99.90
3846;DHT22;1938;50.812;7.738;2022-11-12T06:54:48;2.80;99.90
3846;DHT22;1938;50.812;7.738;2022-11-12T06:57:14;2.90;99.90
3846;DHT22;1938;50.812;7.738;2022-11-12T06:59:39;3.00;99.90
3846;DHT22;1938;50.812;7.738;2022-11-12T07:02:10;3.10;99.90
3846;DHT22;1938;50.812;7.738;2022-11-12T07:04:36;3.10;99.90
3846;DHT22;1938;50.812;7.738;2022-11-12T07:07:02;3.10;99.90
3846;DHT22;1938;50.812;7.738;2022-11-12T07:09:28;3.10;99.90
3846;DHT22;1938;50.812;7.738;2022-11-12T07:11:53;3.10;99.90
3846;DHT22;1938;50.812;7.738;2022-11-12T07:14:19;3.10;99.90
3846;DHT22;1938;50.812;7.738;2022-11-12T07:16:45;3.00;99.90
3846;DHT22;1938;50.812;7.738;2022-11-12T07:19:10;3.00;99.90
3846;DHT22;1938;50.812;7.738;2022-11-12T07:21:36;3.00;99.90
3846;DHT22;1938;50.812;7.738;2022-11-12T07:24:04;3.00;99.90
3846;DHT22;1938;50.812;7.738;2022-11-12T07:26:30;3.10;99.90
3846;DHT22;1938;50.812;7.738;2022-11-12T07:28:55;3.10;99.90
3846;DHT22;1938;50.812;7.738;2022-11-12T07:31:22;3.10;99.90
3846;DHT22;1938;50.812;7.738;2022-11-12T07:33:48;3.10;99.90
3846;DHT22;1938;50.812;7.738;2022-11-12T07:38:55;3.20;99.90
3846;DHT22;1938;50.812;7.738;2022-11-12T07:41:23;3.20;99.90
3846;DHT22;1938;50.812;7.738;2022-11-12T07:43:50;3.30;99.90
3846;DHT22;1938;50.812;7.738;2022-11-12T07:46:19;3.30;99.90
3846;DHT22;1938;50.812;7.738;2022-11-12T07:48:46;3.40;99.90
3846;DHT22;1938;50.812;7.738;2022-11-12T07:51:17;3.40;99.90
3846;DHT22;1938;50.812;7.738;2022-11-12T07:53:46;3.40;99.90
3846;DHT22;1938;50.812;7.738;2022-11-12T07:56:15;3.40;99.90
3846;DHT22;1938;50.812;7.738;2022-11-12T07:58:41;3.40;99.90
3846;DHT22;1938;50.812;7.738;2022-11-12T08:03:43;3.70;99.90
3846;DHT22;1938;50.812;7.738;2022-11-12T08:06:09;3.80;99.90
3846;DHT22;1938;50.812;7.738;2022-11-12T08:08:34;4.00;99.90
3846;DHT22;1938;50.812;7.738;2022-11-12T08:11:00;4.00;97.80
3846;DHT22;1938;50.812;7.738;2022-11-12T08:13:25;4.00;99.90
3846;DHT22;1938;50.812;7.738;2022-11-12T08:15:51;4.10;99.90
3846;DHT22;1938;50.812;7.738;2022-11-12T08:18:17;4.20;99.90
3846;DHT22;1938;50.812;7.738;2022-11-12T08:20:43;4.20;99.90
3846;DHT22;1938;50.812;7.738;2022-11-12T08:23:11;4.30;69.30
3846;DHT22;1938;50.812;7.738;2022-11-12T08:25:37;4.30;32.50
3846;DHT22;1938;50.812;7.738;2022-11-12T08:28:02;4.50;19.50
3846;DHT22;1938;50.812;7.738;2022-11-12T08:33:07;4.80;1.00
3846;DHT22;1938;50.812;7.738;2022-11-12T08:35:36;5.00;99.90
3846;DHT22;1938;50.812;7.738;2022-11-12T08:38:04;5.40;99.90
3846;DHT22;1938;50.812;7.738;2022-11-12T08:40:32;5.50;99.90
3846;DHT22;1938;50.812;7.738;2022-11-12T08:43:06;5.60;99.90
3846;DHT22;1938;50.812;7.738;2022-11-12T08:45:33;5.40;99.90
3846;DHT22;1938;50.812;7.738;2022-11-12T08:48:04;5.50;99.90
3846;DHT22;1938;50.812;7.738;2022-11-12T08:50:30;5.50;1.00
3846;DHT22;1938;50.812;7.738;2022-11-12T08:53:06;5.70;1.00
3846;DHT22;1938;50.812;7.738;2022-11-12T08:55:33;5.90;99.90
3846;DHT22;1938;50.812;7.738;2022-11-12T08:57:59;6.00;1.00
3846;DHT22;1938;50.812;7.738;2022-11-12T09:00:35;6.20;99.90
3846;DHT22;1938;50.812;7.738;2022-11-12T09:03:03;6.60;99.90
3846;DHT22;1938;50.812;7.738;2022-11-12T09:05:30;6.80;27.50
3846;DHT22;1938;50.812;7.738;2022-11-12T09:08:01;6.90;99.90
3846;DHT22;1938;50.812;7.738;2022-11-12T09:10:28;7.20;99.90
3846;DHT22;1938;50.812;7.738;2022-11-12T09:12:53;7.40;99.90
3846;DHT22;1938;50.812;7.738;2022-11-12T09:15:20;7.50;99.90
3846;DHT22;1938;50.812;7.738;2022-11-12T09:17:46;7.60;1.00
3846;DHT22;1938;50.812;7.738;2022-11-12T09:20:11;7.70;1.00
3846;DHT22;1938;50.812;7.738;2022-11-12T09:22:37;7.70;1.00
3846;DHT22;1938;50.812;7.738;2022-11-12T09:25:03;8.00;9.10
3846;DHT22;1938;50.812;7.738;2022-11-12T09:27:29;7.90;99.90
3846;DHT22;1938;50.812;7.738;2022-11-12T09:29:54;7.90;99.90
3846;DHT22;1938;50.812;7.738;2022-11-12T09:32:20;8.00;1.00
3846;DHT22;1938;50.812;7.738;2022-11-12T09:34:46;8.00;1.00
3846;DHT22;1938;50.812;7.738;2022-11-12T09:37:11;8.10;99.90
3846;DHT22;1938;50.812;7.738;2022-11-12T09:39:40;8.20;36.40
3846;DHT22;1938;50.812;7.738;2022-11-12T09:42:07;8.20;1.00
3846;DHT22;1938;50.812;7.738;2022-11-12T09:44:36;8.30;1.00
3846;DHT22;1938;50.812;7.738;2022-11-12T09:47:24;8.30;1.00
3846;DHT22;1938;50.812;7.738;2022-11-12T09:49:56;8.30;99.90
3846;DHT22;1938;50.812;7.738;2022-11-12T09:52:27;8.90;99.90
3846;DHT22;1938;50.812;7.738;2022-11-12T09:55:07;9.20;99.90
3846;DHT22;1938;50.812;7.738;2022-11-12T09:57:34;9.30;1.00
3846;DHT22;1938;50.812;7.738;2022-11-12T10:00:00;9.50;99.90
3846;DHT22;1938;50.812;7.738;2022-11-12T10:02:36;9.30;65.80
3846;DHT22;1938;50.812;7.738;2022-11-12T10:05:47;9.50;1.00
3846;DHT22;1938;50.812;7.738;2022-11-12T10:11:16;9.80;99.90
3846;DHT22;1938;50.812;7.738;2022-11-12T10:15:06;9.90;88.70
3846;DHT22;1938;50.812;7.738;2022-11-12T10:17:11;10.20;88.60
3846;DHT22;1938;50.812;7.738;2022-11-12T10:25:21;10.30;28.50
3846;DHT22;1938;50.812;7.738;2022-11-12T10:27:47;10.50;74.50
3846;DHT22;1938;50.812;7.738;2022-11-12T10:30:16;10.80;26.10
3846;DHT22;1938;50.812;7.738;2022-11-12T10:32:45;11.20;1.00
3846;DHT22;1938;50.812;7.738;2022-11-12T10:35:18;11.50;99.90
3846;DHT22;1938;50.812;7.738;2022-11-12T10:40:37;12.10;99.90
3846;DHT22;1938;50.812;7.738;2022-11-12T10:45:42;12.40;99.90
3846;DHT22;1938;50.812;7.738;2022-11-12T10:48:26;12.80;99.90
3846;DHT22;1938;50.812;7.738;2022-11-12T10:50:53;13.20;99.90
3846;DHT22;1938;50.812;7.738;2022-11-12T10:53:35;13.50;43.00
3846;DHT22;1938;50.812;7.738;2022-11-12T10:56:04;13.20;78.60
3846;DHT22;1938;50.812;7.738;2022-11-12T10:58:30;13.50;91.70
3846;DHT22;1938;50.812;7.738;2022-11-12T11:03:34;13.50;98.30
3846;DHT22;1938;50.812;7.738;2022-11-12T11:08:47;13.70;99.90
3846;DHT22;1938;50.812;7.738;2022-11-12T11:11:28;14.00;89.90
3846;DHT22;1938;50.812;7.738;2022-11-12T11:13:57;14.30;22.20
3846;DHT22;1938;50.812;7.738;2022-11-12T11:16:51;14.60;1.00
3846;DHT22;1938;50.812;7.738;2022-11-12T11:19:17;14.70;1.00
3846;DHT22;1938;50.812;7.738;2022-11-12T11:27:24;14.70;1.00
3846;DHT22;1938;50.812;7.738;2022-11-12T11:30:18;14.80;1.00
3846;DHT22;1938;50.812;7.738;2022-11-12T11:33:10;15.10;1.00
3846;DHT22;1938;50.812;7.738;2022-11-12T11:35:51;15.30;1.00
3846;DHT22;1938;50.812;7.738;2022-11-12T11:38:45;15.40;1.00
3846;DHT22;1938;50.812;7.738;2022-11-12T11:55:35;13.60;98.90
3846;DHT22;1938;50.812;7.738;2022-11-12T12:00:53;13.50;99.90
3846;DHT22;1938;50.812;7.738;2022-11-12T12:03:29;13.30;99.90
3846;DHT22;1938;50.812;7.738;2022-11-12T12:06:23;13.40;99.90
3846;DHT22;1938;50.812;7.738;2022-11-12T12:09:02;13.50;99.90
3846;DHT22;1938;50.812;7.738;2022-11-12T12:19:58;13.50;99.90
3846;DHT22;1938;50.812;7.738;2022-11-12T12:22:34;13.30;99.90
3846;DHT22;1938;50.812;7.738;2022-11-12T12:25:22;13.30;99.90
3846;DHT22;1938;50.812;7.738;2022-11-12T12:28:12;13.10;99.90
3846;DHT22;1938;50.812;7.738;2022-11-12T12:30:44;13.20;99.90
3846;DHT22;1938;50.812;7.738;2022-11-12T12:33:29;13.10;99.90
3846;DHT22;1938;50.812;7.738;2022-11-12T12:36:31;13.10;99.90
3846;DHT22;1938;50.812;7.738;2022-11-12T12:41:55;13.10;99.90
3846;DHT22;1938;50.812;7.738;2022-11-12T12:44:26;13.10;1.00
3846;DHT22;1938;50.812;7.738;2022-11-12T12:47:15;13.10;99.90
3846;DHT22;1938;50.812;7.738;2022-11-12T12:49:44;13.40;99.90
3846;DHT22;1938;50.812;7.738;2022-11-12T12:52:12;13.40;99.90
3846;DHT22;1938;50.812;7.738;2022-11-12T12:57:28;13.50;99.90
3846;DHT22;1938;50.812;7.738;2022-11-12T13:00:24;13.60;99.90
3846;DHT22;1938;50.812;7.738;2022-11-12T13:02:54;13.50;99.90
3846;DHT22;1938;50.812;7.738;2022-11-12T13:07:59;13.80;99.90
3846;DHT22;1938;50.812;7.738;2022-11-12T13:16:02;13.90;99.90
3846;DHT22;1938;50.812;7.738;2022-11-12T13:23:48;14.00;1.00
3846;DHT22;1938;50.812;7.738;2022-11-12T13:26:43;14.10;1.00
3846;DHT22;1938;50.812;7.738;2022-11-12T13:40:19;13.90;99.90
3846;DHT22;1938;50.812;7.738;2022-11-12T13:42:45;13.80;99.90
3846;DHT22;1938;50.812;7.738;2022-11-12T13:45:15;13.80;1.00
3846;DHT22;1938;50.812;7.738;2022-11-12T13:47:42;13.80;1.00
3846;DHT22;1938;50.812;7.738;2022-11-12T13:50:13;13.80;1.00
3846;DHT22;1938;50.812;7.738;2022-11-12T13:52:41;13.80;1.00
3846;DHT22;1938;50.812;7.738;2022-11-12T13:55:19;13.80;1.00
3846;DHT22;1938;50.812;7.738;2022-11-12T13:57:52;13.70;1.00
3846;DHT22;1938;50.812;7.738;2022-11-12T14:03:01;13.50;99.90
3846;DHT22;1938;50.812;7.738;2022-11-12T14:05:30;13.50;99.90
3846;DHT22;1938;50.812;7.738;2022-11-12T14:08:25;13.30;99.90
3846;DHT22;1938;50.812;7.738;2022-11-12T14:16:43;12.90;1.00
3846;DHT22;1938;50.812;7.738;2022-11-12T14:22:00;12.70;1.00
3846;DHT22;1938;50.812;7.738;2022-11-12T14:24:26;12.70;1.00
3846;DHT22;1938;50.812;7.738;2022-11-12T14:26:51;12.70;1.00
3846;DHT22;1938;50.812;7.738;2022-11-12T14:29:18;12.70;1.00
3846;DHT22;1938;50.812;7.738;2022-11-12T14:31:44;12.60;49.50
3846;DHT22;1938;50.812;7.738;2022-11-12T14:34:29;12.50;99.90
3846;DHT22;1938;50.812;7.738;2022-11-12T14:36:56;12.40;99.90
3846;DHT22;1938;50.812;7.738;2022-11-12T14:39:27;12.30;99.90
3846;DHT22;1938;50.812;7.738;2022-11-12T14:41:55;12.40;99.90
3846;DHT22;1938;50.812;7.738;2022-11-12T14:44:27;12.40;99.90
3846;DHT22;1938;50.812;7.738;2022-11-12T14:46:54;12.40;1.00
3846;DHT22;1938;50.812;7.738;2022-11-12T14:49:37;12.50;99.90
3846;DHT22;1938;50.812;7.738;2022-11-12T14:52:10;12.60;80.00
3846;DHT22;1938;50.812;7.738;2022-11-12T14:54:45;12.60;1.00
3846;DHT22;1938;50.812;7.738;2022-11-12T14:57:26;12.60;1.00
3846;DHT22;1938;50.812;7.738;2022-11-12T14:59:52;12.70;1.00
3846;DHT22;1938;50.812;7.738;2022-11-12T15:02:22;12.70;99.90
3846;DHT22;1938;50.812;7.738;2022-11-12T15:05:11;12.80;99.90
3846;DHT22;1938;50.812;7.738;2022-11-12T15:08:04;12.80;99.90
3846;DHT22;1938;50.812;7.738;2022-11-12T15:10:41;12.80;99.90
3846;DHT22;1938;50.812;7.738;2022-11-12T15:13:14;12.70;99.90
3846;DHT22;1938;50.812;7.738;2022-11-12T15:16:03;12.60;99.90
3846;DHT22;1938;50.812;7.738;2022-11-12T15:18:30;12.50;99.90
3846;DHT22;1938;50.812;7.738;2022-11-12T15:26:42;12.50;99.90
3846;DHT22;1938;50.812;7.738;2022-11-12T15:29:18;12.50;99.90
3846;DHT22;1938;50.812;7.738;2022-11-12T15:32:02;12.40;99.90
3846;DHT22;1938;50.812;7.738;2022-11-12T15:34:47;12.30;99.90
3846;DHT22;1938;50.812;7.738;2022-11-12T15:39:50;12.20;1.00
3846;DHT22;1938;50.812;7.738;2022-11-12T15:44:59;12.10;1.00
3846;DHT22;1938;50.812;7.738;2022-11-12T15:47:26;12.10;99.90
3846;DHT22;1938;50.812;7.738;2022-11-12T15:49:53;12.10;99.90
3846;DHT22;1938;50.812;7.738;2022-11-12T15:52:20;12.00;99.90
3846;DHT22;1938;50.812;7.738;2022-11-12T15:54:45;12.00;99.90
3846;DHT22;1938;50.812;7.738;2022-11-12T15:57:23;11.90;1.00
3846;DHT22;1938;50.812;7.738;2022-11-12T16:00:00;11.90;99.90
3846;DHT22;1938;50.812;7.738;2022-11-12T16:02:26;11.70;57.80
3846;DHT22;1938;50.812;7.738;2022-11-12T16:04:53;11.40;99.90
3846;DHT22;1938;50.812;7.738;2022-11-12T16:07:18;11.20;1.00
3846;DHT22;1938;50.812;7.738;2022-11-12T16:09:44;11.00;99.90
3846;DHT22;1938;50.812;7.738;2022-11-12T16:12:12;10.80;69.30
3846;DHT22;1938;50.812;7.738;2022-11-12T16:14:38;10.80;99.90
3846;DHT22;1938;50.812;7.738;2022-11-12T16:17:08;10.60;89.70
3846;DHT22;1938;50.812;7.738;2022-11-12T16:19:34;10.60;1.00
3846;DHT22;1938;50.812;7.738;2022-11-12T16:22:00;10.70;99.90
3846;DHT22;1938;50.812;7.738;2022-11-12T16:24:26;10.70;99.90
3846;DHT22;1938;50.812;7.738;2022-11-12T16:26:52;10.70;99.90
3846;DHT22;1938;50.812;7.738;2022-11-12T16:29:18;10.80;1.00
3846;DHT22;1938;50.812;7.738;2022-11-12T16:31:44;10.80;99.90
3846;DHT22;1938;50.812;7.738;2022-11-12T16:34:10;10.90;99.90
3846;DHT22;1938;50.812;7.738;2022-11-12T16:36:38;11.00;99.90
3846;DHT22;1938;50.812;7.738;2022-11-12T16:39:04;11.10;99.90
3846;DHT22;1938;50.812;7.738;2022-11-12T16:41:30;11.10;99.90
3846;DHT22;1938;50.812;7.738;2022-11-12T16:43:55;11.10;99.90
3846;DHT22;1938;50.812;7.738;2022-11-12T16:46:28;11.20;1.00
3846;DHT22;1938;50.812;7.738;2022-11-12T16:48:54;11.10;95.70
3846;DHT22;1938;50.812;7.738;2022-11-12T16:51:20;11.20;99.90
3846;DHT22;1938;50.812;7.738;2022-11-12T16:53:50;11.10;8.50
3846;DHT22;1938;50.812;7.738;2022-11-12T16:56:20;11.00;1.00
3846;DHT22;1938;50.812;7.738;2022-11-12T16:58:47;11.00;26.30
3846;DHT22;1938;50.812;7.738;2022-11-12T17:03:48;10.80;99.90
3846;DHT22;1938;50.812;7.738;2022-11-12T17:06:14;10.80;99.90
3846;DHT22;1938;50.812;7.738;2022-11-12T17:08:39;10.70;1.00
3846;DHT22;1938;50.812;7.738;2022-11-12T17:11:07;10.60;1.00
3846;DHT22;1938;50.812;7.738;2022-11-12T17:13:34;10.50;1.00
3846;DHT22;1938;50.812;7.738;2022-11-12T17:16:00;10.50;1.00
3846;DHT22;1938;50.812;7.738;2022-11-12T17:18:25;10.40;1.00
3846;DHT22;1938;50.812;7.738;2022-11-12T17:20:51;10.40;99.90
3846;DHT22;1938;50.812;7.738;2022-11-12T17:23:17;10.30;52.10
3846;DHT22;1938;50.812;7.738;2022-11-12T17:25:43;10.20;1.00
3846;DHT22;1938;50.812;7.738;2022-11-12T17:28:08;10.20;1.00
3846;DHT22;1938;50.812;7.738;2022-11-12T17:30:34;10.20;1.00
3846;DHT22;1938;50.812;7.738;2022-11-12T17:33:00;10.10;99.90
3846;DHT22;1938;50.812;7.738;2022-11-12T17:35:25;10.20;1.00
3846;DHT22;1938;50.812;7.738;2022-11-12T17:37:51;10.10;99.90
3846;DHT22;1938;50.812;7.738;2022-11-12T17:40:16;10.10;99.90
3846;DHT22;1938;50.812;7.738;2022-11-12T17:42:43;10.10;45.30
3846;DHT22;1938;50.812;7.738;2022-11-12T17:45:09;10.10;26.50
3846;DHT22;1938;50.812;7.738;2022-11-12T17:47:34;10.10;24.70
3846;DHT22;1938;50.812;7.738;2022-11-12T17:50:00;10.00;55.40
3846;DHT22;1938;50.812;7.738;2022-11-12T17:52:25;10.00;19.30
3846;DHT22;1938;50.812;7.738;2022-11-12T17:54:52;10.00;31.40
3846;DHT22;1938;50.812;7.738;2022-11-12T17:57:17;10.00;1.00
3846;DHT22;1938;50.812;7.738;2022-11-12T17:59:43;9.90;72.60
3846;DHT22;1938;50.812;7.738;2022-11-12T18:02:11;9.90;9.80
3846;DHT22;1938;50.812;7.738;2022-11-12T18:04:37;9.90;34.30
3846;DHT22;1938;50.812;7.738;2022-11-12T18:07:03;9.80;64.00
3846;DHT22;1938;50.812;7.738;2022-11-12T18:09:28;9.80;11.40
3846;DHT22;1938;50.812;7.738;2022-11-12T18:11:54;9.80;16.70
3846;DHT22;1938;50.812;7.738;2022-11-12T18:14:21;9.80;1.00
3846;DHT22;1938;50.812;7.738;2022-11-12T18:16:47;9.80;1.00
3846;DHT22;1938;50.812;7.738;2022-11-12T18:19:13;9.80;1.00
3846;DHT22;1938;50.812;7.738;2022-11-12T18:21:40;9.80;1.00
3846;DHT22;1938;50.812;7.738;2022-11-12T18:24:10;9.80;1.00
3846;DHT22;1938;50.812;7.738;2022-11-12T18:26:37;9.80;1.00
3846;DHT22;1938;50.812;7.738;2022-11-12T18:29:03;9.80;1.00